Time;durP1;ratioP1;P1;durP2;ratioP2;P2;SDS_P1;SDS_P2;PMS_P1;PMS_P2;Temp;Humidity;BMP_temperature;BMP_pressure;BME280_temperature;BME280_humidity;BME280_pressure;Samples;Min_cycle;Max_cycle;Signal;HPM_P1;HPM_P2
2023/09/03 00:00:32;;;;;;;10.82;5.45;;;;;;;;;;5027345;28;20100;-73
2023/09/03 00:02:57;;;;;;;10.05;5.80;;;;;;;;;;5025074;28;20116;-74
2023/09/03 00:05:23;;;;;;;7.68;5.40;;;;;;;;;;5028000;28;20068;-73
2023/09/03 00:07:52;;;;;;;8.55;5.60;;;;;;;;;;5015788;28;20060;-74
2023/09/03 00:10:18;;;;;;;6.95;5.30;;;;;;;;;;5013801;28;20105;-72
2023/09/03 00:12:44;;;;;;;8.48;5.38;;;;;;;;;;5014108;28;20038;-74
2023/09/03 00:15:09;;;;;;;11.20;6.22;;;;;;;;;;5014472;28;20083;-73
2023/09/03 00:17:35;;;;;;;10.65;6.88;;;;;;;;;;5013385;28;20034;-73
2023/09/03 00:20:01;;;;;;;9.32;5.80;;;;;;;;;;5022380;28;20026;-73
2023/09/03 00:22:27;;;;;;;8.40;5.47;;;;;;;;;;5022119;28;20061;-73
2023/09/03 00:24:52;;;;;;;7.95;5.70;;;;;;;;;;5021938;28;20526;-73
2023/09/03 00:27:18;;;;;;;8.43;6.05;;;;;;;;;;5024130;28;20534;-73
2023/09/03 00:29:44;;;;;;;10.98;5.53;;;;;;;;;;5031516;28;20032;-73
2023/09/03 00:32:09;;;;;;;8.48;6.13;;;;;;;;;;5032184;28;20033;-73
2023/09/03 00:34:35;;;;;;;8.70;6.00;;;;;;;;;;5031947;28;20029;-73
2023/09/03 00:37:01;;;;;;;10.55;5.97;;;;;;;;;;5032025;28;20037;-73
2023/09/03 00:39:26;;;;;;;10.23;6.20;;;;;;;;;;5033361;28;20067;-73
2023/09/03 00:41:53;;;;;;;8.45;6.03;;;;;;;;;;5031939;28;20045;-73
2023/09/03 00:44:20;;;;;;;11.23;5.82;;;;;;;;;;5032333;28;20062;-73
2023/09/03 00:46:46;;;;;;;10.05;5.47;;;;;;;;;;5031677;28;20041;-73
2023/09/03 00:49:14;;;;;;;9.60;6.28;;;;;;;;;;5021376;28;20033;-73
2023/09/03 00:51:40;;;;;;;9.35;5.90;;;;;;;;;;5019780;28;20426;-73
2023/09/03 00:54:07;;;;;;;8.68;6.20;;;;;;;;;;5013841;28;20129;-73
2023/09/03 00:56:33;;;;;;;11.25;5.70;;;;;;;;;;5024654;28;20560;-73
2023/09/03 00:59:02;;;;;;;11.40;5.93;;;;;;;;;;5033027;28;20017;-73
2023/09/03 01:01:29;;;;;;;8.30;6.35;;;;;;;;;;5031665;28;20055;-74
2023/09/03 01:03:56;;;;;;;8.65;5.90;;;;;;;;;;5031631;28;20317;-73
2023/09/03 01:06:23;;;;;;;8.32;6.50;;;;;;;;;;5031608;28;20065;-73
2023/09/03 01:08:51;;;;;;;7.18;5.40;;;;;;;;;;5031286;28;20052;-73
2023/09/03 01:11:20;;;;;;;11.48;5.95;;;;;;;;;;5032236;28;20095;-72
2023/09/03 01:13:52;;;;;;;9.23;5.72;;;;;;;;;;5032885;28;20025;-73
2023/09/03 01:16:25;;;;;;;8.65;4.95;;;;;;;;;;5031403;28;20065;-73
2023/09/03 01:18:52;;;;;;;8.30;4.97;;;;;;;;;;5031254;28;20423;-73
2023/09/03 01:21:41;;;;;;;12.05;4.82;;;;;;;;;;5038110;28;20021;-73
2023/09/03 01:24:26;;;;;;;7.97;4.90;;;;;;;;;;5017100;28;20037;-73
2023/09/03 01:27:04;;;;;;;12.85;4.90;;;;;;;;;;5021424;28;20034;-73
2023/09/03 01:29:30;;;;;;;8.38;4.82;;;;;;;;;;5019485;28;20053;-73
2023/09/03 01:31:59;;;;;;;9.73;5.45;;;;;;;;;;5013031;28;20133;-72
2023/09/03 01:34:26;;;;;;;7.80;5.30;;;;;;;;;;5011455;28;20045;-73
2023/09/03 01:36:52;;;;;;;10.57;5.20;;;;;;;;;;5011161;28;20033;-72
2023/09/03 01:39:20;;;;;;;8.07;5.50;;;;;;;;;;5027734;28;20030;-73
2023/09/03 01:41:46;;;;;;;8.90;4.93;;;;;;;;;;5027282;28;20060;-72
2023/09/03 01:44:12;;;;;;;10.48;5.28;;;;;;;;;;5011209;28;20045;-73
2023/09/03 01:46:55;;;;;;;8.48;4.70;;;;;;;;;;5015821;28;20060;-74
2023/09/03 01:49:26;;;;;;;;;;;;;;;;;;5017953;28;20030;-74
2023/09/03 01:52:10;;;;;;;8.82;5.30;;;;;;;;;;5024833;28;19921;-74
2023/09/03 01:54:46;;;;;;;8.65;4.80;;;;;;;;;;5012671;28;20424;-75
2023/09/03 01:57:32;;;;;;;10.23;5.13;;;;;;;;;;5019517;28;20068;-72
2023/09/03 02:00:02;;;;;;;10.85;5.88;;;;;;;;;;5022449;28;20465;-73
2023/09/03 02:02:42;;;;;;;7.57;5.40;;;;;;;;;;5012945;28;20037;-73
2023/09/03 02:05:08;;;;;;;6.65;4.88;;;;;;;;;;5010862;28;20472;-74
2023/09/03 02:07:33;;;;;;;8.57;5.68;;;;;;;;;;5027005;28;20030;-73
2023/09/03 02:09:59;;;;;;;10.63;5.78;;;;;;;;;;5012082;28;20030;-73
2023/09/03 02:12:25;;;;;;;7.30;5.20;;;;;;;;;;5027105;28;20030;-74
2023/09/03 02:14:52;;;;;;;13.23;5.70;;;;;;;;;;5010686;28;20511;-74
2023/09/03 02:17:21;;;;;;;6.40;4.90;;;;;;;;;;5026980;28;20032;-73
2023/09/03 02:19:51;;;;;;;14.02;5.53;;;;;;;;;;5026911;28;20030;-73
2023/09/03 02:22:17;;;;;;;9.63;5.38;;;;;;;;;;5019062;28;20038;-73
2023/09/03 02:24:43;;;;;;;10.82;5.28;;;;;;;;;;5013802;28;20156;-73
2023/09/03 02:27:10;;;;;;;7.93;5.50;;;;;;;;;;5031436;28;20033;-73
2023/09/03 02:29:38;;;;;;;10.70;5.38;;;;;;;;;;5030261;28;20021;-74
2023/09/03 02:32:07;;;;;;;8.50;5.75;;;;;;;;;;5030307;28;20091;-74
2023/09/03 02:34:34;;;;;;;11.43;5.40;;;;;;;;;;5046903;28;20083;-74
2023/09/03 02:37:02;;;;;;;6.65;5.32;;;;;;;;;;5030177;28;20029;-73
2023/09/03 02:39:28;;;;;;;8.00;5.50;;;;;;;;;;5014672;28;20037;-74
2023/09/03 02:41:54;;;;;;;8.40;4.93;;;;;;;;;;5019119;28;20029;-73
2023/09/03 02:44:20;;;;;;;7.68;5.00;;;;;;;;;;5008515;28;20030;-73
2023/09/03 02:46:45;;;;;;;8.32;5.45;;;;;;;;;;4986563;28;20092;-72
2023/09/03 02:49:12;;;;;;;7.43;5.60;;;;;;;;;;5029860;28;20053;-72
2023/09/03 02:51:39;;;;;;;9.75;5.82;;;;;;;;;;5015028;28;20403;-73
2023/09/03 02:54:05;;;;;;;7.57;5.18;;;;;;;;;;5010825;28;20017;-73
2023/09/03 02:56:31;;;;;;;7.15;5.40;;;;;;;;;;5019298;28;20040;-72
2023/09/03 02:58:56;;;;;;;8.02;5.30;;;;;;;;;;5016498;28;20045;-72
2023/09/03 03:01:23;;;;;;;6.63;4.90;;;;;;;;;;5028208;28;20041;-72
2023/09/03 03:03:49;;;;;;;9.75;5.57;;;;;;;;;;5035243;28;20252;-73
2023/09/03 03:06:16;;;;;;;6.63;5.07;;;;;;;;;;5026920;28;20403;-73
2023/09/03 03:08:42;;;;;;;8.88;5.22;;;;;;;;;;5019628;28;20061;-73
2023/09/03 03:11:10;;;;;;;14.60;5.78;;;;;;;;;;5021381;28;20036;-73
2023/09/03 03:13:40;;;;;;;10.98;5.50;;;;;;;;;;5025037;28;20023;-74
2023/09/03 03:16:12;;;;;;;7.70;5.40;;;;;;;;;;5012515;28;20048;-73
2023/09/03 03:18:40;;;;;;;7.50;4.93;;;;;;;;;;5016106;28;20072;-73
2023/09/03 03:21:08;;;;;;;5.68;4.78;;;;;;;;;;5012231;28;20017;-73
2023/09/03 03:23:36;;;;;;;11.68;5.25;;;;;;;;;;5007518;28;20172;-73
2023/09/03 03:26:02;;;;;;;8.40;5.60;;;;;;;;;;5010944;28;20022;-73
2023/09/03 03:28:34;;;;;;;6.82;5.22;;;;;;;;;;5008612;28;20030;-73
2023/09/03 03:31:19;;;;;;;9.10;5.32;;;;;;;;;;5017688;28;20030;-73
2023/09/03 03:33:48;;;;;;;9.52;5.22;;;;;;;;;;5014556;28;20400;-71
2023/09/03 03:36:21;;;;;;;8.10;5.32;;;;;;;;;;5017345;28;20113;-72
2023/09/03 03:38:48;;;;;;;16.20;5.65;;;;;;;;;;5005541;28;20096;-73
2023/09/03 03:41:15;;;;;;;9.85;6.40;;;;;;;;;;5004337;28;20439;-73
2023/09/03 03:43:44;;;;;;;9.15;6.00;;;;;;;;;;5029199;28;20037;-73
2023/09/03 03:46:13;;;;;;;10.18;5.72;;;;;;;;;;5016515;28;20045;-72
2023/09/03 03:48:40;;;;;;;13.00;5.85;;;;;;;;;;5003985;28;20069;-73
2023/09/03 03:51:06;;;;;;;7.25;5.03;;;;;;;;;;5015061;28;20030;-73
2023/09/03 03:53:32;;;;;;;7.15;5.57;;;;;;;;;;5010973;28;20385;-74
2023/09/03 03:56:08;;;;;;;13.20;5.78;;;;;;;;;;5011201;28;20028;-73
2023/09/03 03:58:35;;;;;;;18.20;6.10;;;;;;;;;;5012395;28;20088;-72
2023/09/03 04:01:15;;;;;;;11.00;5.50;;;;;;;;;;5011229;28;20030;-73
2023/09/03 04:03:41;;;;;;;7.13;5.20;;;;;;;;;;5022299;28;20044;-73
2023/09/03 04:06:07;;;;;;;9.02;5.50;;;;;;;;;;5016077;28;20113;-74
2023/09/03 04:08:34;;;;;;;8.90;5.68;;;;;;;;;;5011895;28;20034;-74
2023/09/03 04:11:09;;;;;;;8.07;5.30;;;;;;;;;;5009374;28;20022;-73
2023/09/03 04:13:37;;;;;;;9.48;5.90;;;;;;;;;;5015842;28;20132;-71
2023/09/03 04:16:16;;;;;;;7.82;5.40;;;;;;;;;;5015613;28;20022;-73
2023/09/03 04:18:45;;;;;;;14.55;5.80;;;;;;;;;;5016851;28;20026;-72
2023/09/03 04:21:10;;;;;;;14.75;6.22;;;;;;;;;;5010088;28;20073;-73
2023/09/03 04:23:37;;;;;;;8.73;5.57;;;;;;;;;;5012482;28;20117;-73
2023/09/03 04:26:04;;;;;;;7.90;5.32;;;;;;;;;;5012611;28;20496;-73
2023/09/03 04:28:34;;;;;;;8.55;6.18;;;;;;;;;;5013682;28;20065;-74
2023/09/03 04:31:08;;;;;;;9.18;6.07;;;;;;;;;;5014487;28;20060;-73
2023/09/03 04:33:36;;;;;;;10.02;5.68;;;;;;;;;;5013244;28;20026;-72
2023/09/03 04:36:03;;;;;;;10.77;5.93;;;;;;;;;;5029052;28;20398;-73
2023/09/03 04:38:31;;;;;;;8.15;6.07;;;;;;;;;;5012462;28;20066;-73
2023/09/03 04:41:03;;;;;;;11.90;6.25;;;;;;;;;;5012556;28;20022;-72
2023/09/03 04:43:29;;;;;;;12.50;6.60;;;;;;;;;;5012660;28;20033;-72
2023/09/03 04:45:55;;;;;;;18.88;6.95;;;;;;;;;;5012071;28;20498;-73
2023/09/03 04:48:22;;;;;;;12.52;6.63;;;;;;;;;;5029234;28;20430;-73
2023/09/03 04:50:48;;;;;;;9.35;6.25;;;;;;;;;;5029133;28;20025;-73
2023/09/03 04:53:14;;;;;;;10.13;6.80;;;;;;;;;;5014193;28;20523;-73
2023/09/03 04:55:41;;;;;;;12.38;6.10;;;;;;;;;;5020380;28;20122;-73
2023/09/03 04:58:07;;;;;;;15.65;6.65;;;;;;;;;;5018497;28;20121;-73
2023/09/03 05:00:33;;;;;;;10.20;6.28;;;;;;;;;;5023351;28;20045;-73
2023/09/03 05:03:04;;;;;;;10.10;5.90;;;;;;;;;;5017321;28;20037;-70
2023/09/03 05:05:37;;;;;;;11.02;6.13;;;;;;;;;;5007183;28;20034;-73
2023/09/03 05:08:03;;;;;;;9.95;6.22;;;;;;;;;;5017806;28;20029;-73
2023/09/03 05:10:29;;;;;;;13.07;6.32;;;;;;;;;;5021187;28;20129;-72
2023/09/03 05:12:55;;;;;;;9.13;6.28;;;;;;;;;;5023720;28;20083;-72
2023/09/03 05:15:21;;;;;;;10.65;6.57;;;;;;;;;;5003977;28;20034;-72
2023/09/03 05:17:47;;;;;;;13.48;6.93;;;;;;;;;;5032949;28;20075;-73
2023/09/03 05:20:12;;;;;;;11.15;6.47;;;;;;;;;;5015428;28;20068;-70
2023/09/03 05:22:38;;;;;;;13.10;6.65;;;;;;;;;;5014162;28;20077;-73
2023/09/03 05:25:05;;;;;;;9.98;6.50;;;;;;;;;;5023361;28;20498;-73
2023/09/03 05:27:31;;;;;;;9.02;6.45;;;;;;;;;;5019665;28;20120;-74
2023/09/03 05:29:58;;;;;;;10.50;6.57;;;;;;;;;;5019751;28;20045;-73
2023/09/03 05:32:24;;;;;;;13.68;7.15;;;;;;;;;;5019949;28;20033;-72
2023/09/03 05:34:51;;;;;;;11.85;6.15;;;;;;;;;;5035867;28;20112;-73
2023/09/03 05:37:17;;;;;;;14.10;6.45;;;;;;;;;;5016227;28;20041;-72
2023/09/03 05:39:43;;;;;;;11.93;6.47;;;;;;;;;;5021554;28;20029;-72
2023/09/03 05:42:09;;;;;;;12.40;7.10;;;;;;;;;;5022713;28;20112;-73
2023/09/03 05:44:34;;;;;;;11.52;6.63;;;;;;;;;;5021399;28;20029;-72
2023/09/03 05:47:01;;;;;;;9.77;7.05;;;;;;;;;;5019645;28;20231;-71
2023/09/03 05:49:27;;;;;;;14.73;6.88;;;;;;;;;;5011789;28;20133;-73
2023/09/03 05:51:53;;;;;;;21.75;7.07;;;;;;;;;;5018778;28;20030;-72
2023/09/03 05:54:19;;;;;;;14.00;6.93;;;;;;;;;;5011884;28;20029;-73
2023/09/03 05:56:45;;;;;;;13.50;6.22;;;;;;;;;;5021102;28;20040;-72
2023/09/03 05:59:11;;;;;;;11.35;6.32;;;;;;;;;;5008026;28;20504;-73
2023/09/03 06:01:38;;;;;;;10.57;6.22;;;;;;;;;;5029190;28;20034;-74
2023/09/03 06:04:09;;;;;;;16.13;6.97;;;;;;;;;;5022257;28;20120;-73
2023/09/03 06:06:37;;;;;;;15.83;6.60;;;;;;;;;;5021099;28;20037;-73
2023/09/03 06:09:03;;;;;;;14.10;6.43;;;;;;;;;;5020321;28;20018;-73
2023/09/03 06:11:29;;;;;;;12.55;6.18;;;;;;;;;;5020376;28;20041;-72
2023/09/03 06:13:55;;;;;;;13.63;6.60;;;;;;;;;;5027331;28;20041;-72
2023/09/03 06:16:21;;;;;;;14.32;6.90;;;;;;;;;;5019869;28;20029;-72
2023/09/03 06:18:46;;;;;;;14.85;5.75;;;;;;;;;;5023346;28;20029;-72
2023/09/03 06:21:12;;;;;;;9.73;6.05;;;;;;;;;;5023524;28;20124;-72
2023/09/03 06:23:38;;;;;;;11.77;6.32;;;;;;;;;;5018793;28;20032;-71
2023/09/03 06:26:03;;;;;;;10.75;6.38;;;;;;;;;;5020137;28;20097;-73
2023/09/03 06:28:29;;;;;;;9.80;6.13;;;;;;;;;;5020179;28;20387;-71
2023/09/03 06:30:57;;;;;;;9.23;6.45;;;;;;;;;;5023355;28;20479;-73
2023/09/03 06:33:23;;;;;;;14.32;6.43;;;;;;;;;;5007726;28;20029;-73
2023/09/03 06:35:49;;;;;;;14.55;7.10;;;;;;;;;;5020212;28;20118;-72
2023/09/03 06:38:14;;;;;;;11.43;7.22;;;;;;;;;;5020181;28;20022;-72
2023/09/03 06:40:41;;;;;;;9.85;6.13;;;;;;;;;;5021719;28;20030;-73
2023/09/03 06:43:06;;;;;;;11.55;6.65;;;;;;;;;;5009965;28;20026;-72
2023/09/03 06:45:32;;;;;;;9.25;5.93;;;;;;;;;;5020761;28;20109;-71
2023/09/03 06:47:58;;;;;;;12.45;6.53;;;;;;;;;;5022195;28;20028;-73
2023/09/03 06:50:25;;;;;;;11.43;6.40;;;;;;;;;;5023451;28;20033;-74
2023/09/03 06:52:50;;;;;;;12.77;6.18;;;;;;;;;;5020731;28;20416;-72
2023/09/03 06:55:16;;;;;;;12.50;6.10;;;;;;;;;;5019621;28;20038;-72
2023/09/03 06:57:43;;;;;;;12.60;6.35;;;;;;;;;;5019593;28;20052;-73
2023/09/03 07:00:11;;;;;;;9.20;5.45;;;;;;;;;;5014946;28;20112;-73
2023/09/03 07:02:37;;;;;;;7.97;5.57;;;;;;;;;;5017498;28;20072;-72
2023/09/03 07:05:03;;;;;;;10.20;5.20;;;;;;;;;;5015481;28;20065;-73
2023/09/03 07:07:30;;;;;;;7.53;4.72;;;;;;;;;;5016159;28;20048;-72
2023/09/03 07:09:56;;;;;;;8.73;4.65;;;;;;;;;;5009398;28;20475;-72
2023/09/03 07:12:22;;;;;;;6.93;5.18;;;;;;;;;;5027169;28;20022;-72
2023/09/03 07:14:47;;;;;;;8.30;4.72;;;;;;;;;;5024607;28;20163;-73
2023/09/03 07:17:13;;;;;;;9.18;3.90;;;;;;;;;;5023383;28;20041;-73
2023/09/03 07:19:39;;;;;;;8.05;3.88;;;;;;;;;;5023265;28;20033;-73
2023/09/03 07:22:04;;;;;;;11.30;4.30;;;;;;;;;;5022520;28;20024;-72
2023/09/03 07:24:30;;;;;;;9.13;4.70;;;;;;;;;;5018521;28;20042;-72
2023/09/03 07:26:56;;;;;;;8.68;4.20;;;;;;;;;;5014763;28;20021;-74
2023/09/03 07:29:21;;;;;;;8.98;4.45;;;;;;;;;;5023029;28;20422;-73
2023/09/03 07:31:47;;;;;;;7.50;4.30;;;;;;;;;;5025238;28;20057;-74
2023/09/03 07:34:14;;;;;;;7.28;4.32;;;;;;;;;;5026849;28;20064;-73
2023/09/03 07:36:40;;;;;;;8.98;4.32;;;;;;;;;;5025204;28;20033;-73
2023/09/03 07:39:09;;;;;;;8.02;4.50;;;;;;;;;;5014913;28;20034;-73
2023/09/03 07:41:35;;;;;;;10.32;4.10;;;;;;;;;;5015072;28;20413;-73
2023/09/03 07:44:03;;;;;;;5.78;3.63;;;;;;;;;;5015530;28;20172;-73
2023/09/03 07:46:28;;;;;;;6.18;4.07;;;;;;;;;;5015327;28;20060;-72
2023/09/03 07:48:54;;;;;;;8.32;4.20;;;;;;;;;;5014744;28;20064;-73
2023/09/03 07:51:21;;;;;;;6.53;3.80;;;;;;;;;;5015052;28;20518;-73
2023/09/03 07:53:47;;;;;;;8.45;4.07;;;;;;;;;;5014726;28;20120;-72
2023/09/03 07:56:16;;;;;;;6.70;3.92;;;;;;;;;;5013265;28;20026;-73
2023/09/03 07:58:42;;;;;;;9.60;3.97;;;;;;;;;;5029648;28;20069;-73
2023/09/03 08:01:16;;;;;;;5.38;3.70;;;;;;;;;;5014896;28;20022;-73
2023/09/03 08:03:43;;;;;;;6.43;3.60;;;;;;;;;;5014835;28;20492;-73
2023/09/03 08:06:09;;;;;;;6.13;3.70;;;;;;;;;;5014763;28;20022;-74
2023/09/03 08:08:36;;;;;;;6.07;3.50;;;;;;;;;;5014100;28;20061;-72
2023/09/03 08:11:02;;;;;;;6.00;3.45;;;;;;;;;;5014436;28;20042;-72
2023/09/03 08:13:28;;;;;;;5.82;3.60;;;;;;;;;;5014491;28;20511;-73
2023/09/03 08:15:54;;;;;;;5.82;3.75;;;;;;;;;;5014359;28;20488;-73
2023/09/03 08:18:20;;;;;;;6.75;3.90;;;;;;;;;;5013966;28;20045;-72
2023/09/03 08:20:48;;;;;;;5.18;3.33;;;;;;;;;;5012966;28;20450;-72
2023/09/03 08:23:14;;;;;;;4.85;3.72;;;;;;;;;;5014081;28;20038;-73
2023/09/03 08:25:40;;;;;;;6.05;3.95;;;;;;;;;;5014095;28;20440;-74
2023/09/03 08:28:07;;;;;;;5.60;3.75;;;;;;;;;;5013947;28;20042;-73
2023/09/03 08:30:33;;;;;;;6.07;4.15;;;;;;;;;;5029039;28;20035;-73
2023/09/03 08:32:59;;;;;;;5.80;3.83;;;;;;;;;;5013832;28;20034;-74
2023/09/03 08:35:24;;;;;;;7.68;3.67;;;;;;;;;;5013638;28;20017;-72
2023/09/03 08:37:50;;;;;;;6.10;3.78;;;;;;;;;;5013604;28;20111;-72
2023/09/03 08:40:18;;;;;;;6.47;4.22;;;;;;;;;;5013644;28;20321;-73
2023/09/03 08:42:47;;;;;;;5.40;3.85;;;;;;;;;;5013829;28;20038;-72
2023/09/03 08:45:15;;;;;;;7.68;4.25;;;;;;;;;;5013564;28;20080;-73
2023/09/03 08:47:44;;;;;;;5.90;3.50;;;;;;;;;;5013308;28;20061;-73
2023/09/03 08:50:12;;;;;;;5.45;3.60;;;;;;;;;;5013118;28;20089;-72
2023/09/03 08:52:39;;;;;;;12.02;3.30;;;;;;;;;;5012111;28;20475;-73
2023/09/03 08:55:06;;;;;;;6.45;3.50;;;;;;;;;;5012670;28;20101;-72
2023/09/03 08:57:34;;;;;;;7.05;3.42;;;;;;;;;;5013480;28;20526;-74
2023/09/03 09:00:08;;;;;;;4.88;3.50;;;;;;;;;;5013828;28;20113;-73
2023/09/03 09:02:35;;;;;;;5.60;3.40;;;;;;;;;;5012067;28;20034;-72
2023/09/03 09:05:03;;;;;;;7.75;3.55;;;;;;;;;;5013329;28;20075;-73
2023/09/03 09:07:29;;;;;;;8.18;4.00;;;;;;;;;;5013177;28;20515;-73
2023/09/03 09:09:58;;;;;;;6.78;3.70;;;;;;;;;;5028630;28;20030;-72
2023/09/03 09:12:57;;;;;;;12.55;3.90;;;;;;;;;;5013172;28;20455;-74
2023/09/03 09:15:23;;;;;;;6.32;3.55;;;;;;;;;;5005661;28;20080;-73
2023/09/03 09:17:48;;;;;;;8.70;3.70;;;;;;;;;;5011518;28;20064;-73
2023/09/03 09:20:15;;;;;;;6.05;4.00;;;;;;;;;;5012748;28;20026;-72
2023/09/03 09:22:42;;;;;;;5.53;3.10;;;;;;;;;;5013231;28;20026;-73
2023/09/03 09:25:12;;;;;;;7.80;3.90;;;;;;;;;;5013013;28;20450;-74
2023/09/03 09:27:38;;;;;;;9.93;3.70;;;;;;;;;;5012488;28;20488;-73
2023/09/03 09:30:12;;;;;;;7.50;3.55;;;;;;;;;;5012791;28;20046;-74
2023/09/03 09:32:40;;;;;;;6.07;3.45;;;;;;;;;;5012538;28;20124;-74
2023/09/03 09:35:07;;;;;;;12.15;3.33;;;;;;;;;;5012411;28;20033;-73
2023/09/03 09:37:41;;;;;;;7.40;3.20;;;;;;;;;;5012758;28;20030;-72
2023/09/03 09:40:08;;;;;;;6.90;3.47;;;;;;;;;;5012890;28;20053;-73
2023/09/03 09:42:35;;;;;;;3.70;2.80;;;;;;;;;;5011481;28;20028;-73
2023/09/03 09:45:01;;;;;;;6.45;3.58;;;;;;;;;;5011288;28;20064;-73
2023/09/03 09:47:28;;;;;;;4.90;3.30;;;;;;;;;;5012591;28;20036;-74
2023/09/03 09:49:54;;;;;;;3.95;3.22;;;;;;;;;;5012540;28;20081;-72
2023/09/03 09:52:20;;;;;;;4.55;3.15;;;;;;;;;;5012686;28;20022;-73
2023/09/03 09:54:47;;;;;;;4.75;3.22;;;;;;;;;;5012927;28;20045;-73
2023/09/03 09:57:23;;;;;;;4.25;2.90;;;;;;;;;;5012930;28;20022;-73
2023/09/03 09:59:55;;;;;;;3.90;2.83;;;;;;;;;;5011629;28;20034;-73
2023/09/03 10:02:22;;;;;;;5.13;2.65;;;;;;;;;;5012927;28;20058;-74
2023/09/03 10:04:50;;;;;;;6.18;3.08;;;;;;;;;;5012739;28;20026;-73
2023/09/03 10:07:16;;;;;;;3.63;2.55;;;;;;;;;;5013971;28;20033;-75
2023/09/03 10:09:43;;;;;;;5.20;2.95;;;;;;;;;;5015414;28;20030;-73
2023/09/03 10:12:11;;;;;;;4.47;2.95;;;;;;;;;;5016268;28;20040;-75
2023/09/03 10:14:37;;;;;;;4.35;3.15;;;;;;;;;;5019809;28;20060;-74
2023/09/03 10:17:05;;;;;;;10.68;7.57;;;;;;;;;;5012497;28;20087;-73
2023/09/03 10:19:53;;;;;;;6.40;4.25;;;;;;;;;;5012662;28;20296;-74
2023/09/03 10:22:23;;;;;;;11.68;8.13;;;;;;;;;;5011445;28;20448;-73
2023/09/03 10:24:55;;;;;;;10.50;5.18;;;;;;;;;;5012508;28;20026;-73
2023/09/03 10:27:27;;;;;;;8.20;6.22;;;;;;;;;;5011946;28;20034;-73
2023/09/03 10:29:57;;;;;;;6.90;4.32;;;;;;;;;;5012272;28;20037;-74
2023/09/03 10:32:24;;;;;;;4.50;3.00;;;;;;;;;;5012028;28;20072;-74
2023/09/03 10:34:50;;;;;;;3.90;3.00;;;;;;;;;;5011423;28;20041;-73
2023/09/03 10:37:16;;;;;;;5.88;2.92;;;;;;;;;;5012257;28;20368;-74
2023/09/03 10:39:45;;;;;;;17.33;8.55;;;;;;;;;;5012100;28;20480;-74
2023/09/03 10:42:29;;;;;;;14.57;8.95;;;;;;;;;;5026805;28;20030;-73
2023/09/03 10:44:58;;;;;;;4.57;2.72;;;;;;;;;;5015654;28;20048;-74
2023/09/03 10:47:25;;;;;;;4.03;2.83;;;;;;;;;;5015804;28;20083;-73
2023/09/03 10:49:52;;;;;;;5.10;2.90;;;;;;;;;;5015792;28;20036;-74
2023/09/03 10:52:34;;;;;;;5.72;4.00;;;;;;;;;;5016245;28;20040;-75
2023/09/03 10:55:13;;;;;;;7.40;4.38;;;;;;;;;;5015836;28;20038;-74
2023/09/03 10:57:40;;;;;;;5.85;4.68;;;;;;;;;;5015618;28;20073;-73
2023/09/03 11:00:07;;;;;;;5.97;3.00;;;;;;;;;;5015992;28;20056;-74
2023/09/03 11:02:35;;;;;;;8.00;3.08;;;;;;;;;;5015697;28;20105;-75
2023/09/03 11:05:13;;;;;;;5.38;3.00;;;;;;;;;;5030747;28;20561;-75
2023/09/03 11:07:41;;;;;;;7.22;2.85;;;;;;;;;;5014374;28;20038;-75
2023/09/03 11:10:25;;;;;;;9.07;4.35;;;;;;;;;;5030877;28;20060;-73
2023/09/03 11:12:52;;;;;;;7.10;5.45;;;;;;;;;;5015658;28;20034;-74
2023/09/03 11:15:18;;;;;;;7.00;4.38;;;;;;;;;;5015781;28;20390;-74
2023/09/03 11:17:54;;;;;;;5.75;3.00;;;;;;;;;;5015366;28;20057;-74
2023/09/03 11:20:30;;;;;;;5.20;2.65;;;;;;;;;;5015779;28;20037;-74
2023/09/03 11:22:57;;;;;;;8.07;3.47;;;;;;;;;;5016712;28;20076;-74
2023/09/03 11:25:37;;;;;;;5.65;4.03;;;;;;;;;;5027245;28;20112;-74
2023/09/03 11:28:13;;;;;;;4.97;3.40;;;;;;;;;;5025761;28;20068;-73
2023/09/03 11:30:45;;;;;;;3.80;3.00;;;;;;;;;;5030253;28;20521;-73
2023/09/03 11:33:26;;;;;;;3.92;2.97;;;;;;;;;;5031782;28;20042;-74
2023/09/03 11:35:56;;;;;;;4.60;3.08;;;;;;;;;;5023223;28;20045;-73
2023/09/03 11:38:27;;;;;;;4.03;3.17;;;;;;;;;;5015373;28;20077;-73
2023/09/03 11:40:57;;;;;;;8.10;5.97;;;;;;;;;;5015860;28;20042;-73
2023/09/03 11:43:28;;;;;;;7.50;4.57;;;;;;;;;;5015950;28;20037;-74
2023/09/03 11:45:55;;;;;;;9.47;3.60;;;;;;;;;;5021519;28;20080;-73
2023/09/03 11:48:28;;;;;;;8.23;3.17;;;;;;;;;;5035304;28;20094;-74
2023/09/03 11:50:54;;;;;;;4.03;3.03;;;;;;;;;;5035092;28;20132;-74
2023/09/03 11:53:22;;;;;;;6.40;4.75;;;;;;;;;;5035157;28;20029;-74
2023/09/03 11:55:54;;;;;;;15.80;8.80;;;;;;;;;;5033324;28;20037;-75
2023/09/03 11:58:23;;;;;;;8.60;3.38;;;;;;;;;;5035126;28;20093;-74
2023/09/03 12:00:50;;;;;;;5.55;3.33;;;;;;;;;;5033948;28;20079;-73
2023/09/03 12:03:16;;;;;;;5.47;3.15;;;;;;;;;;5034385;28;20068;-74
2023/09/03 12:05:43;;;;;;;4.22;2.78;;;;;;;;;;5034452;28;20110;-73
2023/09/03 12:08:08;;;;;;;5.72;3.95;;;;;;;;;;5035171;28;20037;-74
2023/09/03 12:10:35;;;;;;;5.97;3.72;;;;;;;;;;5034516;28;20044;-74
2023/09/03 12:13:01;;;;;;;5.07;4.00;;;;;;;;;;5034113;28;20052;-73
2023/09/03 12:15:30;;;;;;;4.65;3.65;;;;;;;;;;5034055;28;20036;-74
2023/09/03 12:18:07;;;;;;;4.95;3.20;;;;;;;;;;5033839;28;20033;-74
2023/09/03 12:20:45;;;;;;;4.03;3.10;;;;;;;;;;5033900;28;20026;-73
2023/09/03 12:23:13;;;;;;;6.32;3.15;;;;;;;;;;5034044;28;20052;-74
2023/09/03 12:25:40;;;;;;;7.20;4.18;;;;;;;;;;5033858;28;20079;-74
2023/09/03 12:28:07;;;;;;;4.10;3.20;;;;;;;;;;5032704;28;20052;-73
2023/09/03 12:31:17;;;;;;;6.25;3.50;;;;;;;;;;5033819;28;20029;-73
2023/09/03 12:33:48;;;;;;;6.72;4.20;;;;;;;;;;5033928;28;20110;-73
2023/09/03 12:36:16;;;;;;;4.85;3.13;;;;;;;;;;5033820;28;20033;-73
2023/09/03 12:38:58;;;;;;;4.70;3.00;;;;;;;;;;5033605;28;20025;-74
2023/09/03 12:41:34;;;;;;;4.90;3.17;;;;;;;;;;5033411;28;20037;-73
2023/09/03 12:44:08;;;;;;;3.83;2.90;;;;;;;;;;5033961;28;20095;-73
2023/09/03 12:46:35;;;;;;;4.30;2.97;;;;;;;;;;5033515;28;20068;-73
2023/09/03 12:49:05;;;;;;;3.55;2.72;;;;;;;;;;5032884;28;20426;-73
2023/09/03 12:51:37;;;;;;;10.05;7.13;;;;;;;;;;5031976;28;20068;-73
2023/09/03 12:54:02;;;;;;;7.20;4.50;;;;;;;;;;5033274;28;20037;-73
2023/09/03 12:56:30;;;;;;;4.28;3.10;;;;;;;;;;5033235;28;20017;-73
2023/09/03 12:58:55;;;;;;;4.93;3.17;;;;;;;;;;5033525;28;20029;-74
2023/09/03 13:01:21;;;;;;;5.05;3.08;;;;;;;;;;5033201;28;20349;-75
2023/09/03 13:03:47;;;;;;;3.95;2.72;;;;;;;;;;5033210;28;20045;-72
2023/09/03 13:06:13;;;;;;;5.88;3.10;;;;;;;;;;5031925;28;20037;-74
2023/09/03 13:08:39;;;;;;;4.53;3.28;;;;;;;;;;5031474;28;20030;-74
2023/09/03 13:11:05;;;;;;;5.55;2.72;;;;;;;;;;5033255;28;20025;-74
2023/09/03 13:13:31;;;;;;;7.45;3.00;;;;;;;;;;5029376;28;20132;-72
2023/09/03 13:15:58;;;;;;;6.00;2.63;;;;;;;;;;5009624;28;20022;-73
2023/09/03 13:18:24;;;;;;;4.13;3.10;;;;;;;;;;5024590;28;20045;-73
2023/09/03 13:20:50;;;;;;;6.63;3.30;;;;;;;;;;5014261;28;20022;-73
2023/09/03 13:23:16;;;;;;;8.40;3.35;;;;;;;;;;5012224;28;20120;-73
2023/09/03 13:25:43;;;;;;;6.55;3.00;;;;;;;;;;5011217;28;20037;-74
2023/09/03 13:28:09;;;;;;;5.82;3.65;;;;;;;;;;5012238;28;20041;-72
2023/09/03 13:30:37;;;;;;;4.60;2.72;;;;;;;;;;5012677;28;20030;-73
2023/09/03 13:33:06;;;;;;;4.60;2.72;;;;;;;;;;5011462;28;20041;-73
2023/09/03 13:35:33;;;;;;;4.30;3.15;;;;;;;;;;5012523;28;20052;-73
2023/09/03 13:38:02;;;;;;;3.75;2.92;;;;;;;;;;5012178;28;20109;-73
2023/09/03 13:40:30;;;;;;;3.90;3.00;;;;;;;;;;5012888;28;20095;-74
2023/09/03 13:42:56;;;;;;;4.38;2.97;;;;;;;;;;5012687;28;20026;-71
2023/09/03 13:45:22;;;;;;;4.95;2.90;;;;;;;;;;5012492;28;20083;-74
2023/09/03 13:47:48;;;;;;;4.97;3.08;;;;;;;;;;5011942;28;20060;-76
2023/09/03 13:50:14;;;;;;;4.03;2.85;;;;;;;;;;5012040;28;20415;-73
2023/09/03 13:52:39;;;;;;;5.22;3.05;;;;;;;;;;5012340;28;20022;-72
2023/09/03 13:55:06;;;;;;;3.70;2.75;;;;;;;;;;5012305;28;20041;-74
2023/09/03 13:57:32;;;;;;;4.35;2.92;;;;;;;;;;5012127;28;20030;-72
2023/09/03 13:59:58;;;;;;;3.72;2.97;;;;;;;;;;5012261;28;20026;-73
2023/09/03 14:02:28;;;;;;;3.58;2.63;;;;;;;;;;5012280;28;20368;-74
2023/09/03 14:04:57;;;;;;;5.38;2.88;;;;;;;;;;5026490;28;20499;-73
2023/09/03 14:07:22;;;;;;;4.65;2.83;;;;;;;;;;5010610;28;20045;-74
2023/09/03 14:09:48;;;;;;;3.90;2.83;;;;;;;;;;5012477;28;20403;-75
2023/09/03 14:12:14;;;;;;;4.70;2.83;;;;;;;;;;5012092;28;20401;-74
2023/09/03 14:14:39;;;;;;;6.03;3.05;;;;;;;;;;5027346;28;20442;-74
2023/09/03 14:17:05;;;;;;;4.80;2.67;;;;;;;;;;5010278;28;20035;-73
2023/09/03 14:19:31;;;;;;;5.47;3.20;;;;;;;;;;5012277;28;20066;-76
2023/09/03 14:22:02;;;;;;;4.00;2.70;;;;;;;;;;5011942;28;20105;-74
2023/09/03 14:24:28;;;;;;;4.80;2.53;;;;;;;;;;5012067;28;20038;-75
2023/09/03 14:26:53;;;;;;;4.30;2.88;;;;;;;;;;5011484;28;20036;-73
2023/09/03 14:29:21;;;;;;;3.88;2.60;;;;;;;;;;5011618;28;20168;-75
2023/09/03 14:31:52;;;;;;;3.70;2.85;;;;;;;;;;5011602;28;20034;-75
2023/09/03 14:34:19;;;;;;;4.10;2.90;;;;;;;;;;5011801;28;20041;-75
2023/09/03 14:36:45;;;;;;;4.28;2.92;;;;;;;;;;5011600;28;20034;-75
2023/09/03 14:39:11;;;;;;;4.07;3.28;;;;;;;;;;5011406;28;20203;-74
2023/09/03 14:41:37;;;;;;;6.75;2.83;;;;;;;;;;5027177;28;20066;-74
2023/09/03 14:44:04;;;;;;;4.40;2.97;;;;;;;;;;5011663;28;20088;-74
2023/09/03 14:46:30;;;;;;;3.85;2.72;;;;;;;;;;5011405;28;20030;-75